createdAt,value
2023-04-14T00:06:06.177Z,100600.50
2023-04-14T00:13:20.071Z,100602.72
2023-04-14T00:16:45.975Z,100602.44
2023-04-14T00:19:51.702Z,100602.16
2023-04-14T00:22:46.941Z,100595.50
2023-04-14T00:25:31.610Z,100598.00
2023-04-14T00:28:19.195Z,100602.06
2023-04-14T00:31:00.962Z,100600.50
2023-04-14T00:34:14.267Z,100598.97
2023-04-14T00:36:48.160Z,100599.47
2023-04-14T00:42:32.346Z,100606.50
2023-04-14T00:48:58.894Z,100607.47
2023-04-14T00:52:25.454Z,100610.72
2023-04-14T00:55:23.199Z,100616.78
2023-04-14T01:21:28.764Z,100621.66
2023-04-14T01:32:03.080Z,100617.22
2023-04-14T01:43:11.186Z,100624.25
2023-04-14T01:49:33.594Z,100627.22
2023-04-14T01:55:59.730Z,100624.50
2023-04-14T02:12:25.507Z,100639.22
2023-04-14T02:19:30.623Z,100639.41
2023-04-14T02:22:47.080Z,100642.69
2023-04-14T02:25:46.925Z,100641.13
2023-04-14T02:40:44.013Z,100653.88
2023-04-14T02:44:12.625Z,100654.38
2023-04-14T02:50:25.651Z,100654.84
2023-04-14T03:05:57.332Z,100669.16
2023-04-14T03:09:13.513Z,100671.97
2023-04-14T03:12:31.076Z,100669.63
2023-04-14T03:15:22.772Z,100671.66
2023-04-14T03:20:55.788Z,100670.59
2023-04-14T03:27:28.299Z,100669.50
2023-04-14T03:38:27.282Z,100666.13
2023-04-14T03:41:33.512Z,100660.28
2023-04-14T03:44:32.552Z,100665.53
2023-04-14T03:48:17.230Z,100670.34
2023-04-14T03:52:02.443Z,100670.81
2023-04-14T03:54:40.515Z,100671.28
2023-04-14T04:00:20.884Z,100675.50
2023-04-14T04:06:33.440Z,100672.41
2023-04-14T04:15:53.023Z,100676.63
2023-04-14T04:27:41.750Z,100681.59
2023-04-14T04:30:31.178Z,100682.81
2023-04-14T04:33:26.636Z,100688.41
2023-04-14T04:36:31.473Z,100686.09
2023-04-14T04:46:25.267Z,100691.06
2023-04-14T04:49:23.024Z,100680.38
2023-04-14T04:51:56.875Z,100684.44
2023-04-14T04:54:45.551Z,100676.53
2023-04-14T04:57:29.538Z,100679.75
2023-04-14T05:00:24.505Z,100671.88
2023-04-14T05:03:00.448Z,100678.69
2023-04-14T05:05:54.707Z,100679.16
2023-04-14T05:08:28.336Z,100672.81
2023-04-14T05:11:15.983Z,100675.59
2023-04-14T05:14:08.920Z,100680.88
2023-04-14T05:17:04.635Z,100669.72
2023-04-14T05:30:20.204Z,100678.38
2023-04-14T05:34:03.291Z,100675.91
2023-04-14T05:39:43.095Z,100679.94
2023-04-14T05:54:55.628Z,100697.28
2023-04-14T06:01:29.737Z,100689.47
2023-04-14T06:53:22.610Z,100670.03
2023-04-14T07:13:18.734Z,100658.28
2023-04-14T07:37:38.100Z,100645.97
2023-04-14T07:44:48.002Z,100630.25
2023-04-14T07:47:52.499Z,100630.53
2023-04-14T07:50:34.347Z,100632.09
2023-04-14T07:53:07.164Z,100635.94
2023-04-14T07:55:52.237Z,100633.91
2023-04-14T07:59:42.941Z,100634.97
2023-04-14T08:03:22.525Z,100637.28
2023-04-14T08:06:23.872Z,100634.00
2023-04-14T08:09:06.221Z,100645.47
2023-04-14T08:12:01.768Z,100640.94
2023-04-14T08:14:49.306Z,100641.72
2023-04-14T08:17:21.999Z,100634.38
2023-04-14T08:23:52.610Z,100642.06
2023-04-14T08:29:29.768Z,100630.69
2023-04-14T08:32:03.362Z,100633.78
2023-04-14T08:34:36.587Z,100630.50
2023-04-14T08:37:15.682Z,100635.59
2023-04-14T08:39:57.557Z,100630.28
2023-04-14T08:42:51.031Z,100631.84
2023-04-14T08:45:24.174Z,100634.91
2023-04-14T08:48:03.890Z,100628.06
2023-04-14T08:51:26.354Z,100633.94
2023-04-14T08:54:01.704Z,100632.97
2023-04-14T08:56:57.449Z,100628.91
2023-04-14T08:59:31.300Z,100634.50
2023-04-14T09:03:12.519Z,100631.25
2023-04-14T09:06:50.016Z,100635.13
2023-04-14T09:09:48.391Z,100622.94
2023-04-14T09:12:42.008Z,100629.31
2023-04-14T09:18:15.280Z,100624.28
2023-04-14T09:21:49.237Z,100629.38
2023-04-14T09:24:23.775Z,100623.31
2023-04-14T09:26:56.898Z,100620.81
2023-04-14T09:29:41.132Z,100615.22
2023-04-14T09:32:19.980Z,100610.66
2023-04-14T09:35:03.514Z,100615.78
2023-04-14T09:38:03.060Z,100605.34
2023-04-14T09:40:46.535Z,100606.88
2023-04-14T09:43:39.869Z,100602.06
2023-04-14T09:46:18.284Z,100600.31
2023-04-14T09:48:52.432Z,100596.25
2023-04-14T09:51:47.914Z,100596.53
2023-04-14T09:54:27.277Z,100584.09
2023-04-14T09:57:11.011Z,100585.63
2023-04-14T09:59:52.528Z,100591.97
2023-04-14T10:06:16.540Z,100582.84
2023-04-14T10:08:51.633Z,100584.09
2023-04-14T10:11:25.955Z,100591.22
2023-04-14T10:14:21.023Z,100588.44
2023-04-14T10:16:53.545Z,100574.44
2023-04-14T10:19:44.769Z,100569.59
2023-04-14T10:22:40.797Z,100567.59
2023-04-14T10:25:19.760Z,100561.22
2023-04-14T10:28:01.832Z,100560.47
2023-04-14T10:30:34.915Z,100558.41
2023-04-14T10:33:21.666Z,100558.94
2023-04-14T10:36:13.482Z,100554.56
2023-04-14T10:39:24.758Z,100550.53
2023-04-14T10:42:09.794Z,100552.06
2023-04-14T10:51:54.786Z,100542.44
2023-04-14T10:55:08.045Z,100541.63
2023-04-14T10:57:45.925Z,100540.88
2023-04-14T11:00:42.046Z,100532.00
2023-04-14T11:04:08.894Z,100535.28
2023-04-14T11:09:39.615Z,100524.38
2023-04-14T11:12:47.577Z,100511.94
2023-04-14T11:15:46.842Z,100515.50
2023-04-14T11:18:50.720Z,100516.53
2023-04-14T11:21:57.312Z,100519.63
2023-04-14T11:24:44.756Z,100516.81
2023-04-14T11:27:21.783Z,100518.06
2023-04-14T11:30:14.263Z,100511.97
2023-04-14T11:32:56.942Z,100517.84
2023-04-14T11:35:48.266Z,100510.75
2023-04-14T11:38:21.182Z,100513.03
2023-04-14T11:40:56.412Z,100515.81
2023-04-14T11:43:32.643Z,100501.06
2023-04-14T11:46:23.590Z,100497.78
2023-04-14T11:48:57.472Z,100497.28
2023-04-14T11:51:33.138Z,100514.34
2023-04-14T11:54:08.829Z,100498.34
2023-04-14T11:56:53.266Z,100494.28
2023-04-14T11:59:53.134Z,100495.81
2023-04-14T12:02:26.380Z,100494.28
2023-04-14T12:05:33.989Z,100495.81
2023-04-14T12:10:58.700Z,100486.91
2023-04-14T12:13:31.285Z,100487.72
2023-04-14T12:16:04.278Z,100482.88
2023-04-14T12:18:36.946Z,100482.13
2023-04-14T12:21:11.884Z,100479.31
2023-04-14T12:23:51.026Z,100470.91
2023-04-14T12:26:25.768Z,100479.56
2023-04-14T12:28:58.394Z,100470.69
2023-04-14T12:34:27.872Z,100463.31
2023-04-14T12:37:25.020Z,100477.59
2023-04-14T12:40:01.824Z,100469.47
2023-04-14T12:42:51.601Z,100469.47
2023-04-14T12:45:51.828Z,100471.03
2023-04-14T12:48:45.199Z,100474.59
2023-04-14T12:51:20.904Z,100455.75
2023-04-14T12:57:13.037Z,100457.31
2023-04-14T12:59:45.870Z,100457.56
2023-04-14T13:02:19.852Z,100446.38
2023-04-14T13:08:18.283Z,100448.66
2023-04-14T13:10:56.715Z,100444.09
2023-04-14T13:13:42.435Z,100435.22
2023-04-14T13:16:18.771Z,100434.72
2023-04-14T13:19:05.551Z,100443.41
2023-04-14T13:21:53.061Z,100444.66
2023-04-14T13:24:37.795Z,100437.53
2023-04-14T13:27:25.429Z,100439.84
2023-04-14T13:30:07.515Z,100438.28
2023-04-14T13:32:40.197Z,100431.94
2023-04-14T13:35:15.682Z,100433.47
2023-04-14T13:37:48.159Z,100431.94
2023-04-14T13:40:36.425Z,100424.78
2023-04-14T13:43:21.647Z,100431.94
2023-04-14T13:46:00.595Z,100422.25
2023-04-14T13:48:48.512Z,100422.53
2023-04-14T13:51:21.989Z,100416.94
2023-04-14T13:54:09.915Z,100416.94
2023-04-14T13:56:42.450Z,100414.13
2023-04-14T13:59:17.290Z,100414.13
2023-04-14T14:04:45.430Z,100396.34
2023-04-14T14:07:26.246Z,100402.72
2023-04-14T14:10:00.610Z,100400.94
2023-04-14T14:12:33.154Z,100404.50
2023-04-14T14:15:06.357Z,100393.59
2023-04-14T14:17:39.234Z,100389.00
2023-04-14T14:20:23.627Z,100390.84
2023-04-14T14:22:56.057Z,100390.84
2023-04-14T14:25:29.693Z,100385.25
2023-04-14T14:28:08.822Z,100378.66
2023-04-14T14:30:41.371Z,100382.72
2023-04-14T14:33:14.462Z,100378.34
2023-04-14T14:35:47.058Z,100381.94
2023-04-14T14:38:20.146Z,100376.34
2023-04-14T14:41:18.144Z,100371.50
2023-04-14T14:44:01.249Z,100374.59
2023-04-14T14:46:52.974Z,100356.69
2023-04-14T14:49:31.667Z,100363.41
2023-04-14T14:52:04.752Z,100367.72
2023-04-14T14:54:37.363Z,100369.28
2023-04-14T14:58:00.005Z,100364.94
2023-04-14T15:00:32.467Z,100360.59
2023-04-14T15:05:52.465Z,100369.97
2023-04-14T15:08:25.237Z,100378.34
2023-04-14T15:10:57.782Z,100376.84
2023-04-14T15:13:45.558Z,100370.97
2023-04-14T15:16:18.078Z,100375.81
2023-04-14T15:18:50.643Z,100369.41
2023-04-14T15:21:24.199Z,100373.78
2023-04-14T15:24:09.012Z,100372.50
2023-04-14T15:26:56.487Z,100374.03
2023-04-14T15:29:28.996Z,100363.59
2023-04-14T15:32:01.625Z,100381.47
2023-04-14T15:34:49.597Z,100373.06
2023-04-14T15:37:34.003Z,100373.06
2023-04-14T15:40:10.609Z,100373.06
2023-04-14T15:42:46.359Z,100375.06
2023-04-14T15:45:18.870Z,100377.09
2023-04-14T15:47:52.758Z,100382.72
2023-04-14T15:50:26.442Z,100374.81
2023-04-14T15:52:59.082Z,100379.63
2023-04-14T15:55:32.525Z,100381.16
2023-04-14T15:58:05.490Z,100380.41
2023-04-14T16:00:54.539Z,100374.03
2023-04-14T16:03:37.047Z,100373.28
2023-04-14T16:06:21.995Z,100375.28
2023-04-14T16:08:54.573Z,100379.63
2023-04-14T16:11:30.378Z,100375.28
2023-04-14T16:14:03.265Z,100378.09
2023-04-14T16:16:54.774Z,100369.41
2023-04-14T16:19:46.520Z,100362.31
2023-04-14T16:25:26.597Z,100359.50
2023-04-14T16:27:59.186Z,100366.34
2023-04-14T16:30:32.392Z,100367.91
2023-04-14T16:33:35.922Z,100377.56
2023-04-14T16:36:12.134Z,100366.13
2023-04-14T16:39:16.099Z,100371.72
2023-04-14T16:41:48.582Z,100369.41
2023-04-14T16:44:37.648Z,100365.84
2023-04-14T16:47:21.107Z,100368.63
2023-04-14T16:49:54.230Z,100368.63
2023-04-14T16:52:27.456Z,100371.16
2023-04-14T16:55:04.242Z,100373.97
2023-04-14T16:57:36.837Z,100380.81
2023-04-14T17:00:17.213Z,100376.50
2023-04-14T17:02:50.431Z,100369.34
2023-04-14T17:05:23.357Z,100372.66
2023-04-14T17:07:56.315Z,100371.13
2023-04-14T17:10:29.792Z,100373.16
2023-04-14T17:13:04.062Z,100368.81
2023-04-14T17:15:40.060Z,100372.13
2023-04-14T17:18:12.601Z,100369.81
2023-04-14T17:20:45.381Z,100368.25
2023-04-14T17:23:20.317Z,100373.09
2023-04-14T17:25:53.554Z,100377.19
2023-04-14T17:28:27.223Z,100375.63
2023-04-14T17:30:59.954Z,100375.34
2023-04-14T17:33:32.423Z,100392.16
2023-04-14T17:36:05.135Z,100382.72
2023-04-14T17:38:38.700Z,100385.53
2023-04-14T17:41:12.910Z,100382.44
2023-04-14T17:43:49.922Z,100380.94
2023-04-14T17:46:31.323Z,100384.97
2023-04-14T17:49:04.858Z,100383.44
2023-04-14T17:51:46.742Z,100386.75
2023-04-14T17:54:19.299Z,100382.91
2023-04-14T17:56:51.806Z,100391.31
2023-04-14T17:59:24.277Z,100397.38
2023-04-14T18:01:56.766Z,100391.03
2023-04-14T18:04:29.401Z,100395.09
2023-04-14T18:07:02.097Z,100390.75
2023-04-14T18:09:34.818Z,100387.19
2023-04-14T18:12:22.751Z,100397.63
2023-04-14T18:14:55.292Z,100403.22
2023-04-14T18:17:31.408Z,100405.75
2023-04-14T18:20:13.824Z,100404.19
2023-04-14T18:22:46.387Z,100405.47
2023-04-14T18:28:10.278Z,100417.91
2023-04-14T18:30:55.780Z,100410.78
2023-04-14T18:33:29.549Z,100409.25
2023-04-14T18:36:11.233Z,100414.56
2023-04-14T18:38:46.559Z,100411.75
2023-04-14T18:41:19.819Z,100412.28
2023-04-14T18:43:52.909Z,100414.28
2023-04-14T18:46:25.597Z,100416.84
2023-04-14T18:48:58.229Z,100419.63
2023-04-14T18:51:31.517Z,100420.13
2023-04-14T18:54:04.683Z,100423.41
2023-04-14T18:56:43.231Z,100421.88
2023-04-14T18:59:15.844Z,100420.31
2023-04-14T19:01:48.515Z,100423.63
2023-04-14T19:04:21.107Z,100426.91
2023-04-14T19:07:02.568Z,100432.50
2023-04-14T19:09:44.187Z,100435.03
2023-04-14T19:14:56.932Z,100434.00
2023-04-14T19:17:41.756Z,100440.84
2023-04-14T19:20:14.384Z,100434.47
2023-04-14T19:22:47.239Z,100438.53
2023-04-14T19:25:20.260Z,100441.81
2023-04-14T19:27:52.812Z,100447.91
2023-04-14T19:30:25.294Z,100442.31
2023-04-14T19:32:57.860Z,100444.81
2023-04-14T19:35:30.921Z,100462.88
2023-04-14T19:38:03.571Z,100448.91
2023-04-14T19:40:54.461Z,100449.38
2023-04-14T19:43:27.286Z,100461.06
2023-04-14T19:46:13.669Z,100451.13
2023-04-14T19:51:29.613Z,100457.69
2023-04-14T19:54:05.823Z,100457.41
2023-04-14T19:59:38.243Z,100463.50
2023-04-14T20:02:23.271Z,100461.19
2023-04-14T20:05:01.158Z,100462.44
2023-04-14T20:10:20.220Z,100458.56
2023-04-14T20:12:52.862Z,100459.09
2023-04-14T20:15:26.002Z,100463.91
2023-04-14T20:18:23.483Z,100461.59
2023-04-14T20:21:16.911Z,100460.06
2023-04-14T20:23:56.364Z,100468.94
2023-04-14T20:26:43.666Z,100468.16
2023-04-14T20:29:17.437Z,100464.31
2023-04-14T20:32:02.462Z,100469.16
2023-04-14T20:34:59.395Z,100467.63
2023-04-14T20:37:32.174Z,100466.84
2023-04-14T20:40:23.859Z,100464.56
2023-04-14T20:42:56.776Z,100463.00
2023-04-14T20:45:41.785Z,100467.06
2023-04-14T20:49:05.038Z,100459.91
2023-04-14T20:51:40.760Z,100461.19
2023-04-14T20:54:28.676Z,100458.88
2023-04-14T20:57:03.893Z,100458.13
2023-04-14T20:59:36.666Z,100458.59
2023-04-14T21:02:27.715Z,100456.28
2023-04-14T21:05:22.609Z,100456.28
2023-04-14T21:07:53.520Z,100456.00
2023-04-14T21:10:32.860Z,100458.03
2023-04-14T21:15:39.815Z,100455.72
2023-04-14T21:16:26.114Z,100454.97
2023-04-14T21:18:58.889Z,100452.66
2023-04-14T21:24:35.498Z,100449.59
2023-04-14T21:27:17.639Z,100459.22
2023-04-14T21:29:50.363Z,100458.94
2023-04-14T21:32:25.804Z,100464.53
2023-04-14T21:37:47.706Z,100453.84
2023-04-14T21:40:20.283Z,100463.47
2023-04-14T21:42:52.914Z,100459.94
2023-04-14T21:45:32.913Z,100461.16
2023-04-14T21:48:07.946Z,100460.88
2023-04-14T21:50:40.746Z,100460.88
2023-04-14T21:53:13.217Z,100464.66
2023-04-14T21:55:45.985Z,100461.88
2023-04-14T21:58:28.132Z,100464.66
2023-04-14T22:01:01.590Z,100463.13
2023-04-14T22:03:34.428Z,100463.91
2023-04-14T22:06:22.292Z,100468.72
2023-04-14T22:08:55.250Z,100466.41
2023-04-14T22:11:31.153Z,100462.84
2023-04-14T22:14:05.354Z,100463.34
2023-04-14T22:16:49.984Z,100462.56
2023-04-14T22:19:23.136Z,100466.59
2023-04-14T22:21:55.785Z,100469.88
2023-04-14T22:24:28.683Z,100467.09
2023-04-14T22:27:01.198Z,100471.91
2023-04-14T22:29:33.666Z,100470.38
2023-04-14T22:32:07.176Z,100466.81
2023-04-14T22:34:39.709Z,100477.22
2023-04-14T22:37:12.187Z,100470.84
2023-04-14T22:39:56.837Z,100475.69
2023-04-14T22:42:30.883Z,100474.13
2023-04-14T22:45:21.352Z,100478.97
2023-04-14T22:47:53.934Z,100478.66
2023-04-14T22:50:26.807Z,100480.69
2023-04-14T22:52:59.894Z,100479.94
2023-04-14T22:55:32.881Z,100475.13
2023-04-14T22:58:16.811Z,100484.72
2023-04-14T23:00:52.552Z,100483.22
2023-04-14T23:03:34.148Z,100483.69
2023-04-14T23:06:07.367Z,100485.72
2023-04-14T23:08:54.953Z,100481.41
2023-04-14T23:11:27.730Z,100482.63
2023-04-14T23:14:15.715Z,100483.91
2023-04-14T23:19:35.907Z,100484.38
2023-04-14T23:22:08.349Z,100482.06
2023-04-14T23:25:01.443Z,100477.75
2023-04-14T23:27:33.956Z,100484.56
2023-04-14T23:33:09.025Z,100491.13
2023-04-14T23:35:41.604Z,100485.56
2023-04-14T23:42:27.255Z,100502.78
2023-04-14T23:45:00.273Z,100495.66
2023-04-14T23:48:10.430Z,100497.69
2023-04-14T23:51:00.912Z,100496.16
2023-04-14T23:53:45.642Z,100491.03
2023-04-14T23:56:18.259Z,100497.41
2023-04-14T23:59:03.348Z,100490.00
